Time;durP1;ratioP1;P1;durP2;ratioP2;P2;SDS_P1;SDS_P2;PMS_P1;PMS_P2;Temp;Humidity;BMP_temperature;BMP_pressure;BME280_temperature;BME280_humidity;BME280_pressure;Samples;Min_cycle;Max_cycle;Signal;HPM_P1;HPM_P2
2022/05/11 00:01:52;;;;;;;4.97;1.40;;;;;;;;;;5113835;28;20110;-64
2022/05/11 00:04:19;;;;;;;3.00;1.40;;;;;;;;;;5093736;28;20058;-64
2022/05/11 00:06:49;;;;;;;3.60;1.38;;;;;;;;;;5093924;28;20044;-63
2022/05/11 00:09:17;;;;;;;5.90;1.73;;;;;;;;;;5093731;28;20448;-63
2022/05/11 00:11:44;;;;;;;3.67;1.40;;;;;;;;;;5093504;28;20131;-63
2022/05/11 00:14:12;;;;;;;5.50;2.40;;;;;;;;;;5093627;28;20074;-64
2022/05/11 00:16:40;;;;;;;3.85;1.58;;;;;;;;;;5093327;28;20468;-64
2022/05/11 00:19:07;;;;;;;4.60;1.45;;;;;;;;;;5092072;28;20152;-64
2022/05/11 00:21:36;;;;;;;10.18;1.58;;;;;;;;;;5093492;28;20802;-66
2022/05/11 00:24:03;;;;;;;5.65;1.50;;;;;;;;;;5093324;28;20051;-64
2022/05/11 00:26:30;;;;;;;3.20;1.42;;;;;;;;;;5092760;28;20056;-64
2022/05/11 00:28:58;;;;;;;4.65;1.50;;;;;;;;;;5093031;28;20119;-65
2022/05/11 00:31:25;;;;;;;12.70;2.20;;;;;;;;;;5093310;28;20604;-65
2022/05/11 00:33:52;;;;;;;4.43;1.90;;;;;;;;;;5091897;28;20039;-63
2022/05/11 00:36:20;;;;;;;3.00;1.35;;;;;;;;;;5092954;28;20047;-65
2022/05/11 00:38:47;;;;;;;3.95;1.52;;;;;;;;;;5091587;28;20040;-66
2022/05/11 00:41:15;;;;;;;6.18;1.33;;;;;;;;;;5093058;28;20426;-65
2022/05/11 00:43:52;;;;;;;4.47;1.60;;;;;;;;;;5093005;28;20051;-64
2022/05/11 00:46:42;;;;;;;2.58;1.30;;;;;;;;;;5092634;28;20075;-66
2022/05/11 00:52:15;;;;;;;5.28;1.65;;;;;;;;;;5092376;28;20044;-65
2022/05/11 00:54:47;;;;;;;2.75;1.30;;;;;;;;;;5092789;28;20075;-64
2022/05/11 00:57:34;;;;;;;3.70;1.50;;;;;;;;;;5092875;28;20032;-64
2022/05/11 01:00:05;;;;;;;3.25;1.50;;;;;;;;;;5108278;28;20044;-64
2022/05/11 01:02:33;;;;;;;3.88;2.00;;;;;;;;;;5112927;28;20062;-63
2022/05/11 01:05:04;;;;;;;6.20;1.77;;;;;;;;;;5112711;28;20062;-63
2022/05/11 01:07:34;;;;;;;6.72;2.15;;;;;;;;;;5111624;28;20043;-63
2022/05/11 01:10:03;;;;;;;4.45;1.30;;;;;;;;;;5112665;28;20036;-64
2022/05/11 01:12:36;;;;;;;3.88;1.50;;;;;;;;;;5112562;28;20039;-64
2022/05/11 01:15:05;;;;;;;5.38;1.60;;;;;;;;;;5111255;28;20511;-64
2022/05/11 01:17:33;;;;;;;3.08;1.50;;;;;;;;;;5112790;28;20036;-63
2022/05/11 01:20:04;;;;;;;4.78;1.50;;;;;;;;;;5091283;28;20517;-63
2022/05/11 01:22:43;;;;;;;6.57;1.50;;;;;;;;;;5092168;28;20401;-64
2022/05/11 01:25:13;;;;;;;6.88;1.55;;;;;;;;;;5092026;28;20452;-64
2022/05/11 01:27:43;;;;;;;5.05;1.52;;;;;;;;;;5090682;28;20097;-62
2022/05/11 01:30:29;;;;;;;14.77;5.82;;;;;;;;;;5092000;28;20493;-66
2022/05/11 01:32:57;;;;;;;4.63;1.63;;;;;;;;;;5092061;28;20047;-65
2022/05/11 01:35:40;;;;;;;6.32;1.55;;;;;;;;;;5091592;28;20050;-66
2022/05/11 01:38:40;;;;;;;7.38;1.50;;;;;;;;;;5091070;28;20044;-66
2022/05/11 01:41:12;;;;;;;4.10;1.90;;;;;;;;;;5091791;28;20055;-66
2022/05/11 01:43:40;;;;;;;3.78;1.48;;;;;;;;;;5091767;28;20105;-65
2022/05/11 01:46:08;;;;;;;5.35;1.55;;;;;;;;;;5090234;28;20093;-66
2022/05/11 01:48:36;;;;;;;4.68;1.70;;;;;;;;;;5091448;28;20044;-70
2022/05/11 01:51:04;;;;;;;5.03;1.60;;;;;;;;;;5091669;28;20397;-69
2022/05/11 01:53:31;;;;;;;5.38;1.75;;;;;;;;;;5089986;28;20083;-64
2022/05/11 01:55:59;;;;;;;37.67;14.55;;;;;;;;;;5104565;28;20130;-66
2022/05/11 01:58:26;;;;;;;5.25;2.42;;;;;;;;;;5110991;28;20039;-68
2022/05/11 02:00:53;;;;;;;2.83;1.45;;;;;;;;;;5110480;28;20035;-67
2022/05/11 02:03:21;;;;;;;10.10;2.30;;;;;;;;;;5111666;28;20050;-64
2022/05/11 02:08:37;;;;;;;8.05;2.28;;;;;;;;;;5111486;28;20503;-66
2022/05/11 02:11:05;;;;;;;5.03;1.70;;;;;;;;;;5111529;28;20068;-67
2022/05/11 02:13:33;;;;;;;6.00;1.80;;;;;;;;;;5111290;27;20399;-66
2022/05/11 02:16:01;;;;;;;8.80;1.98;;;;;;;;;;5111426;27;20517;-66
2022/05/11 02:18:28;;;;;;;54.00;21.83;;;;;;;;;;5104547;28;20040;-69
2022/05/11 02:20:56;;;;;;;140.82;63.42;;;;;;;;;;5091075;28;20040;-64
2022/05/11 02:23:24;;;;;;;10.77;4.95;;;;;;;;;;5090901;28;20493;-65
2022/05/11 02:25:52;;;;;;;3.25;1.60;;;;;;;;;;5090868;28;20123;-66
2022/05/11 02:28:22;;;;;;;4.28;1.65;;;;;;;;;;5090936;28;20050;-65
2022/05/11 02:30:52;;;;;;;5.22;1.80;;;;;;;;;;5090595;28;20036;-69
2022/05/11 02:33:21;;;;;;;6.00;1.65;;;;;;;;;;5090904;28;20123;-70
2022/05/11 02:35:49;;;;;;;7.25;1.50;;;;;;;;;;5090701;28;20040;-69
2022/05/11 02:38:20;;;;;;;5.78;1.80;;;;;;;;;;5090640;28;20063;-65
2022/05/11 02:40:48;;;;;;;5.10;1.60;;;;;;;;;;5090822;28;20042;-68
2022/05/11 02:43:15;;;;;;;7.90;1.70;;;;;;;;;;5089106;28;20101;-68
2022/05/11 02:45:43;;;;;;;2.70;1.60;;;;;;;;;;5090933;28;20532;-65
2022/05/11 02:48:13;;;;;;;7.13;1.80;;;;;;;;;;5090678;28;20040;-71
2022/05/11 02:50:42;;;;;;;3.97;1.60;;;;;;;;;;5090704;28;20047;-67
2022/05/11 02:53:11;;;;;;;5.47;2.17;;;;;;;;;;5111249;28;20640;-70
2022/05/11 02:55:41;;;;;;;5.55;1.67;;;;;;;;;;5110976;28;20078;-68
2022/05/11 02:58:10;;;;;;;3.15;1.52;;;;;;;;;;5109706;28;20636;-62
2022/05/11 03:00:38;;;;;;;5.10;2.10;;;;;;;;;;5110831;28;20097;-62
2022/05/11 03:03:06;;;;;;;4.90;1.80;;;;;;;;;;5110557;28;20096;-66
2022/05/11 03:05:34;;;;;;;9.93;2.75;;;;;;;;;;5110511;28;20059;-63
2022/05/11 03:08:02;;;;;;;6.75;2.20;;;;;;;;;;5110852;28;20093;-62
2022/05/11 03:10:29;;;;;;;5.05;2.17;;;;;;;;;;5110504;28;20031;-63
2022/05/11 03:12:57;;;;;;;5.88;1.90;;;;;;;;;;5110874;28;20096;-62
2022/05/11 03:15:24;;;;;;;3.53;1.55;;;;;;;;;;5110565;28;20040;-63
2022/05/11 03:17:52;;;;;;;4.40;1.52;;;;;;;;;;5108495;28;20044;-62
2022/05/11 03:20:22;;;;;;;5.63;1.88;;;;;;;;;;5090282;28;20062;-59
2022/05/11 03:22:50;;;;;;;23.35;9.48;;;;;;;;;;5090591;28;20032;-62
2022/05/11 03:25:19;;;;;;;3.17;1.85;;;;;;;;;;5088506;28;20039;-62
2022/05/11 03:27:46;;;;;;;5.03;1.58;;;;;;;;;;5089442;28;20040;-62
2022/05/11 03:30:15;;;;;;;5.32;1.80;;;;;;;;;;5090307;28;20043;-62
2022/05/11 03:35:28;;;;;;;6.80;1.67;;;;;;;;;;5090105;28;20055;-62
2022/05/11 03:37:56;;;;;;;4.18;1.70;;;;;;;;;;5090093;28;20044;-60
2022/05/11 03:40:23;;;;;;;4.90;1.67;;;;;;;;;;5090001;28;20066;-62
2022/05/11 03:42:50;;;;;;;2.85;1.60;;;;;;;;;;5090037;28;20146;-64
2022/05/11 03:45:24;;;;;;;6.10;2.22;;;;;;;;;;5090182;28;20102;-65
2022/05/11 03:47:51;;;;;;;4.30;1.80;;;;;;;;;;5089909;28;20390;-63
2022/05/11 03:50:22;;;;;;;5.38;1.98;;;;;;;;;;5089896;28;20115;-60
2022/05/11 03:52:51;;;;;;;20.52;10.23;;;;;;;;;;5090049;28;20085;-60
2022/05/11 03:55:20;;;;;;;7.35;2.95;;;;;;;;;;5089870;28;20047;-61
2022/05/11 03:57:47;;;;;;;7.72;2.25;;;;;;;;;;5090111;28;20505;-62
2022/05/11 04:00:20;;;;;;;5.20;2.30;;;;;;;;;;5090671;28;20126;-62
2022/05/11 04:02:49;;;;;;;3.87;1.60;;;;;;;;;;5093653;28;20066;-62
2022/05/11 04:05:17;;;;;;;4.05;1.42;;;;;;;;;;5093526;28;20047;-61
2022/05/11 04:07:48;;;;;;;2.83;1.67;;;;;;;;;;5093270;28;20048;-62
2022/05/11 04:10:17;;;;;;;4.38;1.85;;;;;;;;;;5091643;28;20082;-60
2022/05/11 04:12:44;;;;;;;4.40;1.67;;;;;;;;;;5092467;28;20078;-61
2022/05/11 04:15:12;;;;;;;6.90;2.20;;;;;;;;;;5092717;28;20089;-62
2022/05/11 04:17:40;;;;;;;6.60;2.08;;;;;;;;;;5092217;28;20131;-62
2022/05/11 04:20:10;;;;;;;5.00;1.98;;;;;;;;;;5112659;28;20126;-61
2022/05/11 04:22:37;;;;;;;4.93;2.25;;;;;;;;;;5112308;28;20573;-61
2022/05/11 04:25:05;;;;;;;6.00;1.77;;;;;;;;;;5112114;28;20139;-61
2022/05/11 04:27:33;;;;;;;6.18;1.90;;;;;;;;;;5113361;28;20040;-61
2022/05/11 04:30:03;;;;;;;4.38;1.83;;;;;;;;;;5112265;28;20539;-61
2022/05/11 04:32:31;;;;;;;5.07;1.75;;;;;;;;;;5113417;28;20070;-66
2022/05/11 04:34:58;;;;;;;3.75;1.60;;;;;;;;;;5113475;28;20051;-61
2022/05/11 04:37:25;;;;;;;60.70;25.75;;;;;;;;;;5113078;28;20044;-62
2022/05/11 04:39:53;;;;;;;6.03;2.60;;;;;;;;;;5113293;28;20043;-63
2022/05/11 04:42:20;;;;;;;5.28;2.05;;;;;;;;;;5113459;28;20047;-61
2022/05/11 04:44:48;;;;;;;5.38;1.80;;;;;;;;;;5113044;28;20078;-60
2022/05/11 04:47:19;;;;;;;3.22;2.00;;;;;;;;;;5113290;28;20489;-60
2022/05/11 04:49:46;;;;;;;3.90;1.58;;;;;;;;;;5113179;28;20143;-61
2022/05/11 04:52:16;;;;;;;4.47;2.10;;;;;;;;;;5113168;27;20062;-60
2022/05/11 04:54:50;;;;;;;3.30;1.48;;;;;;;;;;5112029;28;20055;-60
2022/05/11 04:57:19;;;;;;;4.22;2.00;;;;;;;;;;5112969;28;20043;-60
2022/05/11 04:59:47;;;;;;;2.67;1.73;;;;;;;;;;5112931;28;20121;-60
2022/05/11 05:02:21;;;;;;;3.80;1.77;;;;;;;;;;5112768;28;20047;-62
2022/05/11 05:04:50;;;;;;;5.45;1.90;;;;;;;;;;5112918;28;20040;-61
2022/05/11 05:07:18;;;;;;;82.95;39.72;;;;;;;;;;5112994;27;20520;-62
2022/05/11 05:09:46;;;;;;;6.43;3.05;;;;;;;;;;5113199;28;20044;-59
2022/05/11 05:12:13;;;;;;;4.63;1.98;;;;;;;;;;5112919;28;20040;-61
2022/05/11 05:14:44;;;;;;;6.07;2.13;;;;;;;;;;5112617;28;20494;-60
2022/05/11 05:17:16;;;;;;;4.32;1.88;;;;;;;;;;5111438;28;20516;-61
2022/05/11 05:19:45;;;;;;;3.95;1.90;;;;;;;;;;5107451;28;20047;-61
2022/05/11 05:22:13;;;;;;;4.65;2.00;;;;;;;;;;5112801;27;20047;-60
2022/05/11 05:24:41;;;;;;;6.93;1.90;;;;;;;;;;5112552;28;20043;-60
2022/05/11 05:27:12;;;;;;;4.80;2.05;;;;;;;;;;5112446;28;20062;-61
2022/05/11 05:32:26;;;;;;;4.85;1.63;;;;;;;;;;5112221;28;20047;-60
2022/05/11 05:34:53;;;;;;;4.13;1.58;;;;;;;;;;5112295;28;20039;-60
2022/05/11 05:37:21;;;;;;;6.97;1.80;;;;;;;;;;5112166;27;20097;-60
2022/05/11 05:39:48;;;;;;;5.75;1.70;;;;;;;;;;5112391;28;20433;-60
2022/05/11 05:42:21;;;;;;;5.72;1.90;;;;;;;;;;5110857;28;20084;-60
2022/05/11 05:44:48;;;;;;;3.65;1.88;;;;;;;;;;5111902;28;20075;-60
2022/05/11 05:47:16;;;;;;;4.35;2.00;;;;;;;;;;5109183;28;20094;-60
2022/05/11 05:49:44;;;;;;;6.75;2.22;;;;;;;;;;5112209;28;20460;-60
2022/05/11 05:52:20;;;;;;;4.45;2.05;;;;;;;;;;5111986;28;20119;-60
2022/05/11 05:54:50;;;;;;;4.45;1.58;;;;;;;;;;5112034;28;20046;-61
2022/05/11 05:57:18;;;;;;;3.08;1.70;;;;;;;;;;5111835;27;20051;-60
2022/05/11 05:59:46;;;;;;;4.63;1.90;;;;;;;;;;5111943;28;20436;-61
2022/05/11 06:02:14;;;;;;;7.13;1.70;;;;;;;;;;5111915;28;20075;-62
2022/05/11 06:04:44;;;;;;;7.70;1.95;;;;;;;;;;5111798;28;20382;-60
2022/05/11 06:07:12;;;;;;;7.28;2.17;;;;;;;;;;5111928;28;20528;-60
2022/05/11 06:09:40;;;;;;;5.78;2.10;;;;;;;;;;5111639;28;20047;-60
2022/05/11 06:12:10;;;;;;;4.82;2.47;;;;;;;;;;5111800;28;20762;-60
2022/05/11 06:14:37;;;;;;;5.25;2.28;;;;;;;;;;5111571;27;20043;-60
2022/05/11 06:17:18;;;;;;;3.92;2.17;;;;;;;;;;5111428;28;20077;-61
2022/05/11 06:19:46;;;;;;;5.45;2.80;;;;;;;;;;5091342;28;20050;-60
2022/05/11 06:22:13;;;;;;;8.77;3.28;;;;;;;;;;5091181;28;20061;-60
2022/05/11 06:24:41;;;;;;;11.13;4.75;;;;;;;;;;5090315;28;20079;-60
2022/05/11 06:27:15;;;;;;;10.27;5.28;;;;;;;;;;5090993;28;20043;-60
2022/05/11 06:29:53;;;;;;;10.93;3.92;;;;;;;;;;5091214;28;20109;-61
2022/05/11 06:32:22;;;;;;;15.43;2.85;;;;;;;;;;5090822;28;20056;-61
2022/05/11 06:34:51;;;;;;;6.45;1.85;;;;;;;;;;5090750;28;20051;-61
2022/05/11 06:37:19;;;;;;;11.68;2.80;;;;;;;;;;5104646;28;20097;-60
2022/05/11 06:39:52;;;;;;;6.83;2.30;;;;;;;;;;5110861;28;20458;-61
2022/05/11 06:42:20;;;;;;;7.38;2.50;;;;;;;;;;5094883;28;20036;-60
2022/05/11 06:44:49;;;;;;;4.45;1.92;;;;;;;;;;5090871;28;20402;-60
2022/05/11 06:47:17;;;;;;;8.27;2.13;;;;;;;;;;5090889;28;20036;-60
2022/05/11 06:49:45;;;;;;;4.18;1.67;;;;;;;;;;5090827;28;20054;-60
2022/05/11 06:52:12;;;;;;;4.72;1.95;;;;;;;;;;5090433;28;20043;-60
2022/05/11 07:00:18;;;;;;;6.07;1.92;;;;;;;;;;5090626;28;20082;-60
2022/05/11 07:02:45;;;;;;;5.05;1.70;;;;;;;;;;5090445;28;20040;-63
2022/05/11 07:05:13;;;;;;;3.25;1.70;;;;;;;;;;5090509;28;20051;-60
2022/05/11 07:07:40;;;;;;;6.28;1.83;;;;;;;;;;5090615;28;20043;-61
2022/05/11 07:10:08;;;;;;;4.57;1.83;;;;;;;;;;5090537;28;20048;-60
2022/05/11 07:12:43;;;;;;;5.90;1.50;;;;;;;;;;5089153;28;20440;-61
2022/05/11 07:15:11;;;;;;;2.97;1.35;;;;;;;;;;5090390;28;20105;-60
2022/05/11 07:17:56;;;;;;;4.72;1.77;;;;;;;;;;5090289;28;20048;-60
2022/05/11 07:20:36;;;;;;;4.70;1.58;;;;;;;;;;5090269;28;20045;-60
2022/05/11 07:23:05;;;;;;;5.55;1.60;;;;;;;;;;5090365;28;20056;-60
2022/05/11 07:25:33;;;;;;;5.63;2.10;;;;;;;;;;5090243;28;20421;-61
2022/05/11 07:28:01;;;;;;;7.13;1.88;;;;;;;;;;5090308;28;20074;-60
2022/05/11 07:30:32;;;;;;;7.57;2.17;;;;;;;;;;5090049;28;20044;-60
2022/05/11 07:33:06;;;;;;;10.90;2.25;;;;;;;;;;5100411;28;20385;-60
2022/05/11 07:35:34;;;;;;;9.23;2.55;;;;;;;;;;5111707;28;20031;-60
2022/05/11 07:38:07;;;;;;;4.95;1.85;;;;;;;;;;5114545;28;20043;-60
2022/05/11 07:40:34;;;;;;;13.50;2.10;;;;;;;;;;5114109;28;20051;-60
2022/05/11 07:43:01;;;;;;;4.63;2.00;;;;;;;;;;5114315;28;20047;-61
2022/05/11 07:45:29;;;;;;;5.70;2.15;;;;;;;;;;5114585;28;20051;-61
2022/05/11 07:47:56;;;;;;;6.88;1.52;;;;;;;;;;5114571;28;20493;-60
2022/05/11 07:50:24;;;;;;;5.38;1.70;;;;;;;;;;5114208;28;20067;-60
2022/05/11 07:52:53;;;;;;;5.45;1.60;;;;;;;;;;5114039;28;20043;-60
2022/05/11 07:55:24;;;;;;;5.22;1.77;;;;;;;;;;5114373;28;20036;-60
2022/05/11 15:10:26;;;;;;;3.78;2.17;;;;;;;;;;5190699;27;20166;-49
2022/05/11 15:15:40;;;;;;;2.95;1.95;;;;;;;;;;5152007;27;20043;-51
2022/05/11 15:18:11;;;;;;;3.70;2.05;;;;;;;;;;5169801;27;20047;-51
2022/05/11 15:20:41;;;;;;;3.88;2.25;;;;;;;;;;5169633;27;20043;-49
2022/05/11 15:23:09;;;;;;;2.72;2.00;;;;;;;;;;5169797;27;20117;-49
2022/05/11 15:25:37;;;;;;;6.05;2.53;;;;;;;;;;5169888;27;20041;-52
2022/05/11 15:28:05;;;;;;;5.40;2.55;;;;;;;;;;5169745;27;20068;-49
2022/05/11 15:30:34;;;;;;;5.30;2.08;;;;;;;;;;5169267;27;20035;-50
2022/05/11 15:33:15;;;;;;;4.13;2.35;;;;;;;;;;5151136;27;20050;-56
2022/05/11 15:35:43;;;;;;;4.93;2.00;;;;;;;;;;5168860;27;20046;-48
2022/05/11 15:38:11;;;;;;;3.67;1.85;;;;;;;;;;5169297;27;20125;-48
2022/05/11 15:40:39;;;;;;;3.50;2.00;;;;;;;;;;5168670;27;20117;-52
2022/05/11 15:43:08;;;;;;;4.35;2.15;;;;;;;;;;5169349;27;20042;-55
2022/05/11 15:45:55;;;;;;;9.95;3.22;;;;;;;;;;5169457;27;20549;-51
2022/05/11 15:48:23;;;;;;;5.88;2.17;;;;;;;;;;5169188;27;20034;-48
2022/05/11 15:50:50;;;;;;;5.10;3.03;;;;;;;;;;5169136;27;20091;-51
2022/05/11 15:53:24;;;;;;;5.63;3.30;;;;;;;;;;5148286;27;20035;-50
2022/05/11 15:55:55;;;;;;;4.05;2.60;;;;;;;;;;5148187;27;20110;-48
2022/05/11 15:58:28;;;;;;;4.45;2.22;;;;;;;;;;5148365;27;20039;-54
2022/05/11 16:00:56;;;;;;;3.10;2.38;;;;;;;;;;5148226;27;20068;-48
2022/05/11 16:03:25;;;;;;;3.92;2.03;;;;;;;;;;5148028;27;20031;-53
2022/05/11 16:07:55;;;;;;;14.05;8.00;;;;;;;;;;5191332;27;20744;-47
2022/05/11 16:10:23;;;;;;;6.15;3.50;;;;;;;;;;5169681;27;20034;-53
2022/05/11 16:12:52;;;;;;;5.40;2.63;;;;;;;;;;5123970;27;20050;-50
2022/05/11 16:15:20;;;;;;;6.28;3.40;;;;;;;;;;5105347;28;20085;-53
2022/05/11 16:20:35;;;;;;;6.50;2.53;;;;;;;;;;5087451;28;20051;-50
2022/05/11 16:23:05;;;;;;;6.25;2.90;;;;;;;;;;5087422;28;20047;-49
2022/05/11 16:25:34;;;;;;;5.25;2.90;;;;;;;;;;5087173;28;20118;-52
2022/05/11 16:28:02;;;;;;;8.48;3.40;;;;;;;;;;5103114;28;66256;-51
2022/05/11 16:30:34;;;;;;;3.38;2.50;;;;;;;;;;5107711;28;20078;-55
2022/05/11 16:33:02;;;;;;;6.63;3.15;;;;;;;;;;5107306;28;20788;-51
2022/05/11 16:35:29;;;;;;;5.90;3.35;;;;;;;;;;5107371;28;20078;-48
2022/05/11 16:37:56;;;;;;;5.20;3.00;;;;;;;;;;5107511;28;20117;-57
2022/05/11 16:40:24;;;;;;;6.93;3.38;;;;;;;;;;5107345;28;20038;-58
2022/05/11 16:42:51;;;;;;;4.60;3.28;;;;;;;;;;5107516;28;20085;-57
2022/05/11 16:45:19;;;;;;;5.75;3.30;;;;;;;;;;5107357;28;20052;-52
2022/05/11 16:47:46;;;;;;;8.23;4.97;;;;;;;;;;5089534;28;20122;-53
2022/05/11 16:50:14;;;;;;;6.18;3.58;;;;;;;;;;5107302;28;20124;-50
2022/05/11 16:52:41;;;;;;;6.25;4.15;;;;;;;;;;5107517;28;20105;-58
2022/05/11 16:55:10;;;;;;;7.38;4.35;;;;;;;;;;5107370;28;20510;-50
2022/05/11 16:57:38;;;;;;;7.22;3.35;;;;;;;;;;5088889;28;20047;-56
2022/05/11 17:00:07;;;;;;;5.78;3.50;;;;;;;;;;5107297;28;20082;-52
2022/05/11 17:02:35;;;;;;;6.53;3.30;;;;;;;;;;5107078;28;20040;-58
2022/05/11 17:05:04;;;;;;;6.85;4.15;;;;;;;;;;5107078;28;20058;-54
2022/05/11 17:07:32;;;;;;;9.80;4.30;;;;;;;;;;5106673;28;20506;-48
2022/05/11 17:09:59;;;;;;;6.82;3.53;;;;;;;;;;5107163;28;20501;-52
2022/05/11 17:12:27;;;;;;;5.88;4.03;;;;;;;;;;5106968;28;20457;-57
2022/05/11 17:14:54;;;;;;;10.10;5.63;;;;;;;;;;5106771;28;20490;-56
2022/05/11 17:17:21;;;;;;;10.65;5.63;;;;;;;;;;5103875;28;20078;-55
2022/05/11 17:19:49;;;;;;;9.10;5.53;;;;;;;;;;5093753;28;20064;-50
2022/05/11 17:22:17;;;;;;;7.55;4.93;;;;;;;;;;5093377;28;20048;-56
2022/05/11 17:24:45;;;;;;;6.07;3.88;;;;;;;;;;5093218;28;20048;-56
2022/05/11 17:27:13;;;;;;;8.02;4.70;;;;;;;;;;5093128;28;20047;-58
2022/05/11 17:29:41;;;;;;;6.47;4.25;;;;;;;;;;5092857;28;20532;-58
2022/05/11 17:32:09;;;;;;;7.18;4.38;;;;;;;;;;5092992;28;20093;-46
2022/05/11 17:34:37;;;;;;;6.72;4.05;;;;;;;;;;5092837;28;20047;-56
2022/05/11 17:37:04;;;;;;;5.63;3.70;;;;;;;;;;5074518;28;20044;-54
2022/05/11 17:39:32;;;;;;;8.45;3.20;;;;;;;;;;5092829;28;20048;-50
2022/05/11 17:41:59;;;;;;;5.05;3.13;;;;;;;;;;5092758;28;20087;-53
2022/05/11 17:44:27;;;;;;;5.07;3.58;;;;;;;;;;5092807;28;20048;-55
2022/05/11 17:46:56;;;;;;;7.38;3.47;;;;;;;;;;5092728;28;20044;-48
2022/05/11 17:49:25;;;;;;;5.72;3.35;;;;;;;;;;5092514;28;20062;-46
2022/05/11 17:52:13;;;;;;;5.65;3.03;;;;;;;;;;5092586;28;20066;-48
2022/05/11 17:54:42;;;;;;;4.05;3.05;;;;;;;;;;5092360;28;20059;-50
2022/05/11 17:57:10;;;;;;;5.35;3.38;;;;;;;;;;5092341;28;20087;-55
2022/05/11 17:59:37;;;;;;;4.20;2.90;;;;;;;;;;5092392;28;20399;-51
2022/05/11 18:02:05;;;;;;;5.25;2.75;;;;;;;;;;5092538;28;20055;-56
2022/05/11 18:04:33;;;;;;;7.80;3.10;;;;;;;;;;5092349;28;20055;-53
2022/05/11 18:07:01;;;;;;;5.15;2.55;;;;;;;;;;5092087;28;20040;-53
2022/05/11 18:09:28;;;;;;;4.15;2.47;;;;;;;;;;5092210;28;20058;-59
2022/05/11 18:11:56;;;;;;;3.83;2.58;;;;;;;;;;5092268;28;20114;-50
2022/05/11 18:14:25;;;;;;;5.55;3.08;;;;;;;;;;5092290;28;20036;-58
2022/05/11 18:16:53;;;;;;;5.32;2.92;;;;;;;;;;5092006;28;20090;-49
2022/05/11 18:19:21;;;;;;;5.18;2.90;;;;;;;;;;5091918;28;20039;-56
2022/05/11 18:21:49;;;;;;;4.50;2.63;;;;;;;;;;5091911;28;20040;-52
2022/05/11 18:24:17;;;;;;;3.75;2.58;;;;;;;;;;5092103;28;20044;-52
2022/05/11 18:26:46;;;;;;;5.68;3.22;;;;;;;;;;5092079;28;20590;-59
2022/05/11 18:29:13;;;;;;;5.43;3.17;;;;;;;;;;5106837;28;20039;-48
2022/05/11 18:31:41;;;;;;;4.68;2.95;;;;;;;;;;5112073;28;20114;-47
2022/05/11 18:34:11;;;;;;;7.43;3.22;;;;;;;;;;5111942;28;20039;-54
2022/05/11 18:36:39;;;;;;;3.88;2.20;;;;;;;;;;5111906;28;20126;-50
2022/05/11 18:39:06;;;;;;;4.53;2.95;;;;;;;;;;5112014;28;20046;-48
2022/05/11 18:41:34;;;;;;;5.30;3.55;;;;;;;;;;5111911;28;20040;-48
2022/05/11 18:44:01;;;;;;;4.60;3.28;;;;;;;;;;5093585;28;20380;-52
2022/05/11 18:46:29;;;;;;;4.30;2.92;;;;;;;;;;5111811;28;20268;-54
2022/05/11 18:48:57;;;;;;;5.05;2.80;;;;;;;;;;5111700;28;20043;-51
2022/05/11 18:51:25;;;;;;;3.92;3.08;;;;;;;;;;5111692;28;20490;-51
2022/05/11 18:53:54;;;;;;;4.75;3.45;;;;;;;;;;5111475;28;20513;-48
2022/05/11 18:56:22;;;;;;;5.88;3.95;;;;;;;;;;5111652;28;20058;-52
2022/05/11 18:58:50;;;;;;;6.20;4.60;;;;;;;;;;5111621;28;20079;-48
2022/05/11 19:01:18;;;;;;;4.93;3.58;;;;;;;;;;5111381;28;20064;-48
2022/05/11 19:03:45;;;;;;;5.50;4.07;;;;;;;;;;5111898;28;20035;-49
2022/05/11 19:06:13;;;;;;;5.55;4.45;;;;;;;;;;5109653;28;20051;-49
2022/05/11 19:08:40;;;;;;;5.40;4.05;;;;;;;;;;5111414;28;20031;-48
2022/05/11 19:11:10;;;;;;;5.63;3.47;;;;;;;;;;5111399;28;20097;-52
2022/05/11 19:13:37;;;;;;;5.68;3.90;;;;;;;;;;5092867;28;20040;-47
2022/05/11 19:16:04;;;;;;;5.90;4.05;;;;;;;;;;5111310;28;20361;-49
2022/05/11 19:18:32;;;;;;;5.35;4.57;;;;;;;;;;5111161;28;20051;-49
2022/05/11 19:20:59;;;;;;;9.77;7.00;;;;;;;;;;5111101;28;20491;-48
2022/05/11 19:23:27;;;;;;;6.68;6.00;;;;;;;;;;5111171;28;20055;-46
2022/05/11 19:25:56;;;;;;;9.68;7.25;;;;;;;;;;5111091;28;20039;-50
2022/05/11 19:28:27;;;;;;;9.93;7.75;;;;;;;;;;5102165;28;20071;-48
2022/05/11 19:31:04;;;;;;;8.43;6.13;;;;;;;;;;5090773;28;20107;-54
2022/05/11 19:33:32;;;;;;;17.58;12.43;;;;;;;;;;5090600;28;20146;-49
2022/05/11 19:35:59;;;;;;;9.95;8.32;;;;;;;;;;5090804;28;20508;-49
2022/05/11 19:38:36;;;;;;;6.07;4.95;;;;;;;;;;5090658;28;20044;-47
2022/05/11 19:41:04;;;;;;;19.25;4.20;;;;;;;;;;5090412;28;20040;-54
2022/05/11 19:43:31;;;;;;;19.67;5.65;;;;;;;;;;5090600;28;20040;-53
2022/05/11 19:45:58;;;;;;;8.15;4.55;;;;;;;;;;5090551;28;20081;-49
2022/05/11 19:48:26;;;;;;;9.90;5.82;;;;;;;;;;5090621;28;20036;-46
2022/05/11 19:50:55;;;;;;;6.70;4.70;;;;;;;;;;5090429;28;20077;-55
2022/05/11 19:53:23;;;;;;;5.07;3.92;;;;;;;;;;5090323;28;20041;-49
2022/05/11 19:55:52;;;;;;;43.22;5.03;;;;;;;;;;5090343;28;20042;-53
2022/05/11 19:58:25;;;;;;;4.82;3.13;;;;;;;;;;5090244;28;20101;-49
2022/05/11 20:00:58;;;;;;;3.72;3.03;;;;;;;;;;5090390;28;20036;-50
2022/05/11 20:03:26;;;;;;;5.60;3.35;;;;;;;;;;5090331;28;20115;-50
2022/05/11 20:05:58;;;;;;;5.45;3.25;;;;;;;;;;5090190;28;20079;-49
2022/05/11 20:08:26;;;;;;;4.75;3.22;;;;;;;;;;5090274;28;20119;-47
2022/05/11 20:10:56;;;;;;;125.38;8.85;;;;;;;;;;5090277;28;20071;-53
2022/05/11 20:13:24;;;;;;;4.32;3.22;;;;;;;;;;5090227;28;20052;-48
2022/05/11 20:15:52;;;;;;;5.30;4.32;;;;;;;;;;5090213;28;20038;-49
2022/05/11 20:18:22;;;;;;;9.75;4.03;;;;;;;;;;5090121;28;20055;-48
2022/05/11 20:20:49;;;;;;;4.25;3.00;;;;;;;;;;5089987;28;20066;-53
2022/05/11 20:23:17;;;;;;;6.18;3.88;;;;;;;;;;5090433;28;20075;-47
2022/05/11 20:25:44;;;;;;;30.08;5.50;;;;;;;;;;5090475;28;20097;-55
2022/05/11 20:28:11;;;;;;;5.85;3.95;;;;;;;;;;5096973;28;20087;-47
2022/05/11 20:30:39;;;;;;;6.18;4.07;;;;;;;;;;5110530;28;20448;-49
2022/05/11 20:35:52;;;;;;;9.07;4.63;;;;;;;;;;5110407;28;20092;-51
2022/05/11 20:38:23;;;;;;;5.40;3.88;;;;;;;;;;5110331;28;20043;-50
2022/05/11 20:40:51;;;;;;;7.53;3.97;;;;;;;;;;5110388;28;20097;-50
2022/05/11 20:43:19;;;;;;;6.95;4.78;;;;;;;;;;5110380;28;20039;-54
2022/05/11 20:45:47;;;;;;;6.70;4.55;;;;;;;;;;5110531;28;20114;-55
2022/05/11 20:48:15;;;;;;;53.67;5.20;;;;;;;;;;5110439;28;20126;-51
2022/05/11 20:50:45;;;;;;;71.60;6.93;;;;;;;;;;5110277;28;20081;-53
2022/05/11 20:53:13;;;;;;;137.05;7.35;;;;;;;;;;5111438;28;20035;-53
2022/05/11 20:55:42;;;;;;;209.10;8.50;;;;;;;;;;5114091;28;20050;-58
2022/05/11 20:58:12;;;;;;;67.75;4.28;;;;;;;;;;5113768;28;20044;-54
2022/05/11 21:00:41;;;;;;;130.18;6.85;;;;;;;;;;5113903;28;20139;-53
2022/05/11 21:03:09;;;;;;;4.88;3.13;;;;;;;;;;5113919;28;20040;-57
2022/05/11 21:05:36;;;;;;;26.20;3.28;;;;;;;;;;5113812;28;20039;-55
2022/05/11 21:08:05;;;;;;;7.53;3.55;;;;;;;;;;5113792;28;20042;-52
2022/05/11 21:10:32;;;;;;;3.13;2.30;;;;;;;;;;5113605;28;20070;-53
2022/05/11 21:13:00;;;;;;;3.83;2.90;;;;;;;;;;5113732;28;20067;-49
2022/05/11 21:15:29;;;;;;;6.72;3.30;;;;;;;;;;5113226;28;20599;-50
2022/05/11 21:17:57;;;;;;;4.63;3.03;;;;;;;;;;5113718;28;20395;-49
2022/05/11 21:20:26;;;;;;;8.45;5.22;;;;;;;;;;5113477;28;20058;-48
2022/05/11 21:22:54;;;;;;;8.50;4.40;;;;;;;;;;5113430;28;20665;-52
2022/05/11 21:25:22;;;;;;;48.35;5.65;;;;;;;;;;5113436;28;20051;-54
2022/05/11 21:27:50;;;;;;;7.13;4.22;;;;;;;;;;5109306;28;20040;-55
2022/05/11 21:30:20;;;;;;;6.05;2.65;;;;;;;;;;5093343;28;20078;-51
2022/05/11 21:32:48;;;;;;;4.38;3.20;;;;;;;;;;5093073;28;20048;-53
2022/05/11 21:35:17;;;;;;;35.03;3.95;;;;;;;;;;5091831;28;20101;-47
2022/05/11 21:37:45;;;;;;;28.25;3.85;;;;;;;;;;5092921;28;20064;-52
2022/05/11 21:40:15;;;;;;;31.85;4.22;;;;;;;;;;5092749;28;20098;-56
2022/05/11 21:42:43;;;;;;;14.52;3.53;;;;;;;;;;5092782;28;20107;-56
2022/05/11 21:45:12;;;;;;;5.35;2.85;;;;;;;;;;5092623;28;20075;-49
2022/05/11 21:47:40;;;;;;;4.32;3.03;;;;;;;;;;5092663;28;20056;-52
2022/05/11 21:50:11;;;;;;;9.48;3.63;;;;;;;;;;5092517;28;20086;-57
2022/05/11 21:52:39;;;;;;;4.97;3.15;;;;;;;;;;5092569;28;20044;-55
2022/05/11 21:55:07;;;;;;;4.75;2.95;;;;;;;;;;5092601;28;20055;-55
2022/05/11 21:57:44;;;;;;;4.85;3.40;;;;;;;;;;5092375;28;20056;-49
2022/05/11 22:00:23;;;;;;;3.88;2.55;;;;;;;;;;5092466;28;20504;-56
2022/05/11 22:02:51;;;;;;;6.90;3.30;;;;;;;;;;5092274;28;20087;-54
2022/05/11 22:05:18;;;;;;;6.47;3.88;;;;;;;;;;5092402;28;20028;-53
2022/05/11 22:07:46;;;;;;;5.60;3.65;;;;;;;;;;5092153;28;20048;-55
2022/05/11 22:10:14;;;;;;;5.75;3.30;;;;;;;;;;5092348;28;20500;-58
2022/05/11 22:12:41;;;;;;;3.42;2.38;;;;;;;;;;5092121;28;20040;-51
2022/05/11 22:15:09;;;;;;;3.80;2.58;;;;;;;;;;5091843;28;20036;-49
2022/05/11 22:17:37;;;;;;;54.70;4.70;;;;;;;;;;5092104;28;20051;-49
2022/05/11 22:20:06;;;;;;;5.63;2.83;;;;;;;;;;5091974;28;20055;-52
2022/05/11 22:22:34;;;;;;;7.30;2.55;;;;;;;;;;5092323;28;20040;-56
2022/05/11 22:25:14;;;;;;;4.28;2.42;;;;;;;;;;5092061;28;20067;-46
2022/05/11 22:27:44;;;;;;;3.35;2.65;;;;;;;;;;5094494;28;20047;-58
2022/05/11 22:30:16;;;;;;;3.08;2.30;;;;;;;;;;5112363;28;20050;-55
2022/05/11 22:32:44;;;;;;;3.50;2.40;;;;;;;;;;5112145;28;20044;-52